Time;durP1;ratioP1;P1;durP2;ratioP2;P2;SDS_P1;SDS_P2;PMS_P1;PMS_P2;Temp;Humidity;BMP_temperature;BMP_pressure;BME280_temperature;BME280_humidity;BME280_pressure;Samples;Min_cycle;Max_cycle;Signal;HPM_P1;HPM_P2
2022/07/29 00:00:53;;;;;;;10.15;2.13;;;;;;;14.64;64.99;101819.88;4980219;28;20034;-69
2022/07/29 00:03:18;;;;;;;9.88;2.28;;;;;;;14.50;65.30;101825.94;4981080;28;20026;-69
2022/07/29 00:05:43;;;;;;;12.00;2.33;;;;;;;14.51;65.14;101824.91;4991211;28;20022;-69
2022/07/29 00:08:09;;;;;;;5.53;1.80;;;;;;;14.49;65.31;101821.50;4991415;28;20156;-70
2022/07/29 00:10:34;;;;;;;6.03;1.65;;;;;;;14.47;65.46;101823.50;4990977;28;20018;-70
2022/07/29 00:13:00;;;;;;;9.70;1.90;;;;;;;14.53;65.52;101822.88;4970389;28;20277;-70
2022/07/29 00:15:25;;;;;;;5.25;1.58;;;;;;;14.47;65.37;101818.91;4978644;28;20246;-70
2022/07/29 00:17:51;;;;;;;7.00;2.53;;;;;;;14.39;65.62;101827.84;4984248;28;20037;-70
2022/07/29 00:20:16;;;;;;;7.63;2.20;;;;;;;14.38;65.33;101826.16;4982839;28;20111;-69
2022/07/29 00:22:42;;;;;;;11.18;2.13;;;;;;;14.28;65.87;101814.53;4981951;28;20026;-70
2022/07/29 00:25:07;;;;;;;4.88;1.80;;;;;;;14.38;65.45;101815.25;4978531;28;20081;-70
2022/07/29 00:27:34;;;;;;;4.68;1.85;;;;;;;14.25;65.55;101819.41;4980045;28;20077;-70
2022/07/29 00:30:00;;;;;;;8.48;2.55;;;;;;;14.18;65.71;101819.19;4989942;28;20030;-70
2022/07/29 00:32:25;;;;;;;8.00;2.30;;;;;;;14.13;66.31;101814.22;4989716;28;20027;-70
2022/07/29 00:37:34;;;;;;;7.38;1.90;;;;;;;14.20;66.27;101811.72;4981351;28;20034;-70
2022/07/29 00:40:03;;;;;;;6.70;2.17;;;;;;;14.07;65.90;101811.28;4985308;28;20026;-70
2022/07/29 00:42:29;;;;;;;10.57;2.55;;;;;;;14.05;66.69;101802.41;4975543;28;20116;-70
2022/07/29 00:44:54;;;;;;;8.30;2.20;;;;;;;13.99;66.42;101792.16;4988457;28;20037;-70
2022/07/29 00:47:19;;;;;;;10.57;2.30;;;;;;;14.08;66.67;101796.63;4982516;28;20018;-70
2022/07/29 00:49:45;;;;;;;4.97;1.75;;;;;;;13.77;67.19;101794.38;4992459;28;20061;-70
2022/07/29 00:52:11;;;;;;;10.20;2.10;;;;;;;13.84;66.80;101797.31;4980467;28;20105;-70
2022/07/29 00:54:39;;;;;;;5.65;2.20;;;;;;;13.75;66.89;101790.94;4990432;28;20019;-70
2022/07/29 00:57:06;;;;;;;4.55;2.05;;;;;;;13.82;67.37;101796.59;4989997;28;20481;-70
2022/07/29 00:59:31;;;;;;;8.00;2.10;;;;;;;13.89;66.97;101791.38;4990727;28;20081;-70
2022/07/29 01:01:56;;;;;;;10.35;3.22;;;;;;;13.77;67.30;101788.91;4993064;28;20038;-70
2022/07/29 01:04:22;;;;;;;5.50;2.17;;;;;;;13.76;67.38;101791.81;4995810;28;20026;-70
2022/07/29 01:06:48;;;;;;;8.75;2.15;;;;;;;13.71;67.24;101789.53;4996036;28;20026;-70
2022/07/29 01:09:15;;;;;;;4.95;2.25;;;;;;;13.74;67.34;101791.94;4978069;28;20273;-70
2022/07/29 01:11:42;;;;;;;6.20;2.08;;;;;;;13.78;66.99;101787.91;4978884;28;20070;-70
2022/07/29 01:14:09;;;;;;;6.30;2.05;;;;;;;13.71;66.99;101786.81;4985311;28;20030;-70
2022/07/29 01:16:41;;;;;;;6.97;2.28;;;;;;;13.68;67.31;101778.97;4975265;28;20022;-70
2022/07/29 01:19:21;;;;;;;11.80;2.28;;;;;;;13.67;67.38;101782.69;4985714;28;20069;-70
2022/07/29 01:21:51;;;;;;;8.18;2.22;;;;;;;13.71;66.91;101775.94;4983035;28;20118;-71
2022/07/29 01:24:49;;;;;;;10.82;2.17;;;;;;;13.57;67.58;101771.06;4979856;28;20039;-69
2022/07/29 01:27:52;;;;;;;9.43;2.67;;;;;;;13.51;67.73;101771.66;4984245;28;20129;-69
2022/07/29 01:30:18;;;;;;;10.43;2.60;;;;;;;13.63;67.46;101769.53;4991717;28;20041;-69
2022/07/29 01:32:48;;;;;;;9.75;2.40;;;;;;;13.54;67.29;101776.78;4985877;28;20097;-69
2022/07/29 01:35:23;;;;;;;14.68;2.50;;;;;;;13.55;67.22;101767.59;4982735;28;20023;-69
2022/07/29 01:38:56;;;;;;;14.93;2.70;;;;;;;13.65;67.17;101762.97;5004330;23;20046;-76
2022/07/29 01:42:00;;;;;;;10.10;2.78;;;;;;;13.65;66.82;101757.50;5024588;28;20030;-77
2022/07/29 01:48:26;;;;;;;8.20;2.45;;;;;;;13.64;66.46;101755.81;5012442;28;20489;-76
2022/07/29 01:51:29;;;;;;;8.82;2.50;;;;;;;13.69;66.29;101745.31;5014901;28;20509;-76
2022/07/29 01:54:39;;;;;;;10.05;2.67;;;;;;;13.68;66.53;101751.75;5014633;28;20036;-76
2022/07/29 02:07:43;;;;;;;7.28;2.63;;;;;;;13.69;66.56;101734.44;4939516;23;20058;-72
2022/07/29 02:10:10;;;;;;;9.00;2.70;;;;;;;13.78;66.13;101730.75;4999795;28;20148;-72
2022/07/29 02:12:36;;;;;;;25.48;3.22;;;;;;;13.68;67.10;101729.97;4988981;28;20089;-72
2022/07/29 02:15:04;;;;;;;11.80;2.63;;;;;;;13.68;66.85;101727.25;4995041;28;20025;-71
2022/07/29 02:17:39;;;;;;;9.50;2.15;;;;;;;13.94;66.06;101729.16;4994656;28;20026;-72
2022/07/29 02:20:05;;;;;;;6.60;2.88;;;;;;;14.06;65.83;101733.31;4997937;28;20032;-71
2022/07/29 02:22:35;;;;;;;7.18;2.58;;;;;;;14.08;65.58;101728.56;4997751;28;20022;-71
2022/07/29 02:25:01;;;;;;;10.38;2.42;;;;;;;13.95;65.98;101728.13;5015217;28;20081;-72
2022/07/29 02:27:28;;;;;;;8.48;2.70;;;;;;;13.97;66.35;101729.69;4997725;28;20057;-72
2022/07/29 02:29:57;;;;;;;12.23;3.25;;;;;;;13.91;66.90;101729.47;4997140;28;20026;-72
2022/07/29 02:32:25;;;;;;;9.20;2.20;;;;;;;14.05;66.10;101726.16;5015264;28;20051;-72
2022/07/29 02:34:52;;;;;;;12.10;2.70;;;;;;;13.96;66.24;101724.41;5013615;28;20014;-72
2022/07/29 02:37:18;;;;;;;10.63;2.80;;;;;;;14.00;66.02;101723.06;4997255;28;20018;-72
2022/07/29 02:39:45;;;;;;;4.85;2.42;;;;;;;14.10;65.88;101723.81;4975644;28;20022;-72
2022/07/29 02:42:14;;;;;;;9.30;2.63;;;;;;;13.98;66.30;101725.09;5014710;28;20036;-71
2022/07/29 02:44:40;;;;;;;7.53;3.28;;;;;;;13.94;66.43;101718.25;4996514;28;20025;-72
2022/07/29 02:47:15;;;;;;;14.30;2.63;;;;;;;14.03;66.17;101712.72;4993111;28;20074;-72
2022/07/29 02:50:02;;;;;;;10.60;2.53;;;;;;;14.02;66.93;101715.63;4997161;28;20029;-72
2022/07/29 02:52:54;;;;;;;8.45;3.08;;;;;;;14.04;66.62;101714.41;4996524;28;20075;-71
2022/07/29 02:55:33;;;;;;;11.32;3.03;;;;;;;14.16;66.01;101725.91;4996942;28;20057;-71
2022/07/29 02:58:13;;;;;;;12.15;2.47;;;;;;;14.01;66.72;101724.78;5014358;28;20026;-72
2022/07/29 03:00:40;;;;;;;11.15;3.00;;;;;;;14.05;66.72;101709.84;4996097;28;20041;-72
2022/07/29 03:03:14;;;;;;;8.93;2.72;;;;;;;14.12;66.33;101710.88;4996721;28;20025;-72
2022/07/29 03:05:40;;;;;;;10.30;2.83;;;;;;;13.98;66.82;101706.03;5012524;28;20392;-72
2022/07/29 03:08:10;;;;;;;6.15;2.83;;;;;;;13.92;67.20;101709.41;5014406;28;20049;-72
2022/07/29 03:10:37;;;;;;;11.70;3.08;;;;;;;13.88;67.47;101702.56;5013794;28;20049;-72
2022/07/29 03:13:04;;;;;;;9.25;3.10;;;;;;;13.96;67.02;101702.63;4996753;28;20025;-72
2022/07/29 03:15:30;;;;;;;11.30;2.97;;;;;;;14.07;66.82;101699.63;4975554;28;20093;-72
2022/07/29 03:17:57;;;;;;;9.93;2.63;;;;;;;14.03;66.84;101696.38;4985847;28;20109;-72
2022/07/29 03:20:23;;;;;;;7.45;2.65;;;;;;;14.13;66.48;101698.97;5013819;28;20100;-72
2022/07/29 03:22:48;;;;;;;12.75;3.22;;;;;;;14.17;66.28;101708.53;4995803;28;20200;-72
2022/07/29 03:25:15;;;;;;;12.65;3.22;;;;;;;14.09;66.64;101711.22;4982921;28;20026;-72
2022/07/29 03:27:41;;;;;;;9.00;2.70;;;;;;;14.05;67.12;101704.38;5013777;28;20060;-72
2022/07/29 03:30:07;;;;;;;10.50;2.85;;;;;;;13.98;67.42;101697.88;4995195;28;20034;-72
2022/07/29 03:32:33;;;;;;;9.82;2.47;;;;;;;14.21;66.49;101695.44;4995357;28;20025;-72
2022/07/29 03:34:59;;;;;;;7.07;3.17;;;;;;;14.21;66.73;101701.75;4995857;28;20030;-71
2022/07/29 03:37:24;;;;;;;8.55;2.90;;;;;;;14.24;66.63;101693.25;5013442;28;20093;-71
2022/07/29 03:39:52;;;;;;;4.78;2.72;;;;;;;14.18;66.56;101691.19;4966337;28;20027;-72
2022/07/29 03:42:20;;;;;;;9.88;2.63;;;;;;;14.17;66.66;101692.22;4996528;28;20034;-72
2022/07/29 03:44:48;;;;;;;10.38;3.25;;;;;;;14.21;66.39;101693.56;5013545;28;20026;-72
2022/07/29 03:47:17;;;;;;;9.23;3.05;;;;;;;14.18;66.53;101699.34;5006646;28;20053;-73
2022/07/29 03:49:46;;;;;;;12.93;3.55;;;;;;;14.40;65.98;101693.31;5008167;28;20507;-71
2022/07/29 03:52:12;;;;;;;18.92;3.78;;;;;;;14.20;66.49;101697.31;4996223;28;20033;-71
2022/07/29 03:54:38;;;;;;;14.57;3.05;;;;;;;14.31;66.52;101699.75;5002210;28;20022;-71
2022/07/29 03:57:05;;;;;;;12.07;3.47;;;;;;;14.30;66.33;101700.78;4995523;28;20121;-71
2022/07/29 03:59:33;;;;;;;14.27;3.00;;;;;;;14.46;66.00;101696.41;5013276;28;20053;-73
2022/07/29 04:02:00;;;;;;;10.77;3.40;;;;;;;14.62;65.09;101686.50;4995945;28;20084;-72
2022/07/29 04:04:26;;;;;;;10.18;3.90;;;;;;;14.48;65.81;101689.00;4994176;28;20021;-72
2022/07/29 04:06:51;;;;;;;11.02;3.15;;;;;;;14.55;65.71;101693.63;4995678;28;20030;-72
2022/07/29 04:09:16;;;;;;;13.82;3.53;;;;;;;14.53;65.42;101698.34;5012469;28;20032;-72
2022/07/29 04:11:42;;;;;;;10.88;3.08;;;;;;;14.43;66.07;101696.75;5012337;28;20022;-72
2022/07/29 04:14:08;;;;;;;8.68;3.08;;;;;;;14.53;65.63;101686.59;5003297;28;20036;-72
2022/07/29 04:16:33;;;;;;;15.90;3.78;;;;;;;14.49;66.10;101696.16;4984915;28;20069;-72
2022/07/29 04:18:59;;;;;;;6.80;3.03;;;;;;;14.69;65.33;101697.59;4994968;28;20033;-73
2022/07/29 04:21:24;;;;;;;9.40;3.55;;;;;;;14.63;65.32;101695.50;5012047;28;20021;-72
2022/07/29 04:23:50;;;;;;;10.20;3.90;;;;;;;14.56;65.71;101691.75;4994883;28;20040;-72
2022/07/29 04:26:19;;;;;;;13.45;3.85;;;;;;;14.62;66.11;101696.53;4994899;28;20029;-73
2022/07/29 04:28:45;;;;;;;9.80;2.97;;;;;;;14.89;64.90;101695.44;5009231;28;20049;-72
2022/07/29 04:31:12;;;;;;;5.63;3.00;;;;;;;14.77;65.35;101692.16;4995273;28;20029;-72
2022/07/29 04:33:37;;;;;;;11.10;2.92;;;;;;;14.68;65.12;101690.44;5006494;28;20033;-72
2022/07/29 04:36:03;;;;;;;5.65;2.70;;;;;;;14.84;65.03;101693.19;5000448;28;20030;-73
2022/07/29 04:38:29;;;;;;;7.95;3.13;;;;;;;14.72;65.58;101686.34;4989639;28;20499;-73
2022/07/29 04:40:54;;;;;;;14.65;3.30;;;;;;;14.79;65.39;101687.38;4990384;28;20519;-72
2022/07/29 04:43:19;;;;;;;9.68;3.10;;;;;;;14.86;65.10;101693.88;5012479;28;20022;-72
2022/07/29 04:45:45;;;;;;;13.23;3.15;;;;;;;15.04;64.77;101701.94;5010748;28;20480;-72
2022/07/29 04:48:10;;;;;;;12.63;3.53;;;;;;;14.85;65.42;101692.16;4996338;28;20040;-72
2022/07/29 04:50:38;;;;;;;11.73;2.83;;;;;;;14.95;64.99;101685.72;4994801;28;20033;-72
2022/07/29 04:53:03;;;;;;;10.55;3.13;;;;;;;14.99;64.90;101687.94;4994530;28;20392;-72
2022/07/29 04:55:29;;;;;;;6.78;3.72;;;;;;;15.27;64.08;101691.25;4995091;28;20026;-72
2022/07/29 04:57:54;;;;;;;11.80;4.18;;;;;;;15.26;63.87;101695.00;5012435;28;20029;-72
2022/07/29 05:00:20;;;;;;;11.65;3.65;;;;;;;15.33;63.97;101701.47;4995134;28;20036;-72
2022/07/29 05:02:45;;;;;;;10.73;3.33;;;;;;;15.53;63.21;101695.69;4992039;28;20122;-72
2022/07/29 05:05:11;;;;;;;10.35;3.10;;;;;;;15.45;63.71;101699.25;4994450;28;20054;-72
2022/07/29 05:07:36;;;;;;;15.18;3.38;;;;;;;15.41;63.48;101696.03;5011959;28;20500;-72
2022/07/29 05:10:02;;;;;;;12.52;3.20;;;;;;;15.63;63.18;101696.38;4993892;28;20061;-72
2022/07/29 05:12:27;;;;;;;9.20;3.05;;;;;;;15.59;63.23;101700.47;4989234;28;20022;-71
2022/07/29 05:14:53;;;;;;;10.40;3.28;;;;;;;15.67;63.09;101698.63;4982183;28;20026;-71
2022/07/29 05:17:19;;;;;;;16.33;3.80;;;;;;;15.58;63.35;101709.66;4992889;28;20021;-71
2022/07/29 05:19:44;;;;;;;10.52;3.15;;;;;;;15.82;63.05;101706.97;5002924;28;20092;-72
2022/07/29 05:22:10;;;;;;;9.50;2.63;;;;;;;15.85;62.47;101712.09;4994721;28;20034;-72
2022/07/29 05:24:35;;;;;;;7.30;3.05;;;;;;;15.99;62.39;101707.81;4994147;28;20018;-71
2022/07/29 05:27:00;;;;;;;13.13;3.63;;;;;;;15.96;62.18;101699.94;4994931;28;20041;-72
2022/07/29 05:29:26;;;;;;;14.95;3.28;;;;;;;15.94;62.48;101694.66;4994803;28;20030;-71
2022/07/29 05:31:52;;;;;;;10.65;2.75;;;;;;;16.25;62.11;101702.09;5012180;28;20026;-72
2022/07/29 05:34:18;;;;;;;13.05;2.72;;;;;;;16.34;61.62;101700.19;4994179;28;20028;-72
2022/07/29 05:36:44;;;;;;;10.18;3.45;;;;;;;16.42;61.47;101709.22;4994333;28;20097;-71
2022/07/29 05:39:10;;;;;;;12.85;3.10;;;;;;;16.41;61.73;101718.44;4989004;28;20057;-72
2022/07/29 05:41:36;;;;;;;17.08;3.10;;;;;;;16.55;61.26;101714.97;5011578;28;20062;-72
2022/07/29 05:44:02;;;;;;;10.38;2.80;;;;;;;16.63;61.41;101716.84;4993624;28;20028;-72
2022/07/29 05:46:27;;;;;;;14.55;3.55;;;;;;;16.94;60.33;101708.66;5005163;28;20038;-72
2022/07/29 05:48:53;;;;;;;9.13;2.65;;;;;;;17.01;60.42;101709.63;4998350;28;20021;-72
2022/07/29 05:51:18;;;;;;;9.20;3.58;;;;;;;16.81;60.73;101708.41;4997182;28;20080;-72
2022/07/29 05:53:44;;;;;;;9.20;3.15;;;;;;;16.95;60.57;101715.88;5015164;28;20022;-72
2022/07/29 05:56:10;;;;;;;9.32;3.28;;;;;;;17.15;60.44;101710.78;4998297;28;20108;-72
2022/07/29 05:58:36;;;;;;;15.60;4.05;;;;;;;17.16;60.10;101711.63;4996339;28;20030;-72
2022/07/29 06:01:01;;;;;;;50.28;5.53;;;;;;;17.40;59.73;101708.69;5014835;28;20053;-72
2022/07/29 06:03:27;;;;;;;10.85;3.08;;;;;;;17.29;59.72;101707.25;4997808;28;20030;-72
2022/07/29 06:05:52;;;;;;;9.43;3.08;;;;;;;17.39;59.96;101701.53;4995286;28;20026;-72
2022/07/29 06:08:18;;;;;;;8.27;3.13;;;;;;;17.25;59.73;101699.59;4999214;28;20113;-72
2022/07/29 06:10:43;;;;;;;12.60;2.97;;;;;;;17.32;59.76;101703.28;4996901;28;20503;-72
2022/07/29 06:13:09;;;;;;;10.60;3.15;;;;;;;17.62;59.15;101707.00;4987707;28;20038;-72
2022/07/29 06:15:35;;;;;;;11.07;2.92;;;;;;;17.91;58.44;101700.75;4997277;28;20080;-72
2022/07/29 06:18:00;;;;;;;11.95;3.25;;;;;;;18.18;57.84;101708.34;4978097;28;20063;-72
2022/07/29 06:20:26;;;;;;;12.20;3.83;;;;;;;18.30;57.51;101705.16;4976451;28;20025;-72
2022/07/29 06:22:52;;;;;;;11.63;3.13;;;;;;;18.25;57.75;101707.59;4971980;28;20034;-72
2022/07/29 06:25:18;;;;;;;15.45;2.70;;;;;;;18.25;57.58;101702.13;4971264;28;20101;-73
2022/07/29 06:27:43;;;;;;;7.00;2.30;;;;;;;18.36;57.50;101699.75;4977124;28;20495;-73
2022/07/29 06:30:09;;;;;;;7.57;3.05;;;;;;;18.52;57.04;101703.34;5000514;28;20052;-73
2022/07/29 06:32:35;;;;;;;10.25;3.38;;;;;;;18.82;56.53;101698.72;4991894;28;20076;-73
2022/07/29 06:35:01;;;;;;;11.38;3.15;;;;;;;18.52;57.36;101703.34;4995145;28;20026;-73
2022/07/29 06:37:26;;;;;;;8.68;2.92;;;;;;;18.61;56.36;101697.56;5005495;28;20045;-76
2022/07/29 06:40:59;;;;;;;14.35;3.00;;;;;;;18.79;55.92;101699.97;4974885;28;20069;-76
2022/07/29 06:42:37;;;;;;;8.00;2.00;;;;;;;19.11;55.78;101709.63;4989512;28;20026;-76
2022/07/29 06:45:02;;;;;;;6.60;2.53;;;;;;;19.26;55.15;101701.31;4978508;28;20049;-76
2022/07/29 06:47:28;;;;;;;12.00;3.10;;;;;;;19.12;54.71;101697.59;4991166;28;20157;-76
2022/07/29 06:49:54;;;;;;;10.27;2.42;;;;;;;19.11;55.11;101704.13;5001751;28;20036;-76
2022/07/29 06:52:20;;;;;;;9.10;3.10;;;;;;;19.37;55.13;101702.72;4997714;28;20026;-76
2022/07/29 06:54:47;;;;;;;9.93;2.67;;;;;;;19.45;55.66;101699.84;4994292;28;20048;-76
2022/07/29 06:57:13;;;;;;;12.07;3.03;;;;;;;19.32;54.61;101696.97;4996711;28;20084;-76
2022/07/29 06:59:38;;;;;;;11.27;2.90;;;;;;;19.28;54.85;101703.88;5014059;28;20432;-76
2022/07/29 07:02:04;;;;;;;7.22;2.88;;;;;;;19.13;54.88;101702.03;4996034;28;20025;-76
2022/07/29 07:04:29;;;;;;;10.93;2.63;;;;;;;18.99;55.37;101697.44;4994155;28;20129;-76
2022/07/29 07:06:55;;;;;;;8.10;2.85;;;;;;;18.85;55.16;101693.69;5010747;28;20026;-74
2022/07/29 07:09:21;;;;;;;3.67;2.45;;;;;;;19.00;55.36;101690.91;4996150;28;20041;-74
2022/07/29 07:11:46;;;;;;;15.60;3.17;;;;;;;19.10;54.81;101691.44;4996184;28;20160;-73
2022/07/29 07:14:11;;;;;;;12.65;2.55;;;;;;;19.27;54.43;101685.69;4985763;28;20014;-74
2022/07/29 07:16:37;;;;;;;8.43;2.80;;;;;;;19.24;54.63;101687.81;4995484;28;20018;-74
2022/07/29 07:19:02;;;;;;;6.80;3.13;;;;;;;19.21;55.01;101687.31;4995566;28;20033;-73
2022/07/29 07:21:28;;;;;;;12.02;3.42;;;;;;;19.29;54.70;101686.34;4995759;28;20077;-74
2022/07/29 07:23:53;;;;;;;8.63;2.65;;;;;;;19.38;54.47;101693.44;4995649;28;20484;-73
2022/07/29 07:26:19;;;;;;;9.52;2.70;;;;;;;19.57;54.65;101687.28;4995552;28;20113;-74
2022/07/29 07:28:44;;;;;;;8.90;2.47;;;;;;;19.68;54.73;101683.16;4995396;28;20022;-74
2022/07/29 07:31:10;;;;;;;14.52;2.83;;;;;;;19.90;54.21;101686.72;4996030;28;20032;-73
2022/07/29 07:33:35;;;;;;;10.63;3.00;;;;;;;19.98;53.75;101676.41;4994119;28;20069;-74
2022/07/29 07:36:01;;;;;;;10.90;2.78;;;;;;;20.10;53.74;101684.13;5013473;28;20033;-74
2022/07/29 07:38:26;;;;;;;8.15;2.92;;;;;;;20.08;54.06;101678.78;5008356;28;20113;-73
2022/07/29 07:40:52;;;;;;;13.52;2.65;;;;;;;19.82;53.77;101678.59;4995099;28;20076;-74
2022/07/29 07:43:17;;;;;;;9.30;3.03;;;;;;;19.84;53.91;101682.03;4994850;28;20030;-73
2022/07/29 07:45:42;;;;;;;7.40;2.20;;;;;;;19.94;53.41;101688.00;5008232;28;20061;-73
2022/07/29 07:48:09;;;;;;;13.32;2.85;;;;;;;19.86;53.33;101674.44;4995227;28;20026;-74
2022/07/29 07:50:35;;;;;;;15.90;3.42;;;;;;;20.10;53.63;101687.72;4995269;28;20030;-73
2022/07/29 07:53:01;;;;;;;14.70;2.63;;;;;;;20.22;53.08;101672.34;4994979;28;20025;-71
2022/07/29 07:55:27;;;;;;;9.18;2.80;;;;;;;20.25;52.67;101674.69;4968409;28;20033;-73
2022/07/29 07:57:54;;;;;;;8.35;2.50;;;;;;;20.36;52.28;101666.94;4967318;28;20025;-73
2022/07/29 08:00:20;;;;;;;10.27;2.20;;;;;;;20.51;52.41;101664.91;4995866;28;20105;-72
2022/07/29 08:02:45;;;;;;;11.23;2.75;;;;;;;20.70;51.00;101672.41;4988081;28;20063;-71
2022/07/29 08:05:13;;;;;;;7.80;2.58;;;;;;;20.56;52.48;101676.16;4995375;28;20041;-71
2022/07/29 08:07:40;;;;;;;10.48;2.90;;;;;;;20.66;51.93;101676.59;4999949;28;20079;-70
2022/07/29 08:10:05;;;;;;;13.40;2.58;;;;;;;20.77;50.50;101667.78;4993592;28;20034;-71
2022/07/29 08:12:31;;;;;;;13.43;2.85;;;;;;;20.77;50.63;101673.28;4995162;28;20053;-71
2022/07/29 08:14:56;;;;;;;9.15;2.70;;;;;;;20.75;50.88;101669.03;4973554;28;20023;-71
2022/07/29 08:17:22;;;;;;;6.82;2.88;;;;;;;20.93;50.68;101672.06;4987890;28;20038;-71
2022/07/29 08:19:48;;;;;;;8.85;2.50;;;;;;;21.27;50.22;101671.09;4985784;28;20121;-69
2022/07/29 08:22:13;;;;;;;17.80;2.53;;;;;;;21.47;49.25;101667.53;5007731;28;20026;-72
2022/07/29 08:24:55;;;;;;;10.77;2.53;;;;;;;21.53;49.52;101666.69;4989548;28;20037;-72
2022/07/29 08:27:22;;;;;;;9.98;2.90;;;;;;;21.85;48.43;101671.34;4991561;28;20040;-72
2022/07/29 08:29:47;;;;;;;9.35;2.40;;;;;;;21.90;48.62;101674.31;4988797;28;20033;-71
2022/07/29 08:32:13;;;;;;;6.32;2.58;;;;;;;22.27;46.55;101657.31;4987575;28;20121;-71
2022/07/29 08:34:38;;;;;;;7.80;2.38;;;;;;;22.47;46.75;101672.72;4970277;28;20101;-70
2022/07/29 08:37:04;;;;;;;6.25;2.58;;;;;;;22.44;46.73;101664.91;4988765;28;20023;-71
2022/07/29 08:39:29;;;;;;;6.00;2.13;;;;;;;22.48;46.71;101663.38;4970432;28;20030;-71
2022/07/29 08:41:55;;;;;;;8.38;2.58;;;;;;;22.47;47.39;101656.16;4970360;28;20038;-71
2022/07/29 08:44:24;;;;;;;12.40;2.45;;;;;;;22.61;46.68;101664.41;4971123;28;20018;-72
2022/07/29 08:46:50;;;;;;;5.18;2.05;;;;;;;22.81;47.40;101662.38;4988595;28;20034;-71
2022/07/29 08:49:17;;;;;;;9.75;3.40;;;;;;;23.10;46.54;101662.91;4970180;28;20560;-71
2022/07/29 08:51:44;;;;;;;8.80;2.55;;;;;;;22.99;45.48;101662.53;4970773;28;20404;-72
2022/07/29 08:54:10;;;;;;;5.45;2.78;;;;;;;23.00;45.98;101658.72;4998032;28;20026;-72
2022/07/29 08:56:37;;;;;;;5.78;2.92;;;;;;;23.14;44.71;101658.63;4982420;28;20117;-71
2022/07/29 08:59:04;;;;;;;8.95;2.60;;;;;;;23.26;44.74;101656.84;4971393;28;20077;-72
2022/07/29 09:01:33;;;;;;;10.00;3.15;;;;;;;23.20;44.95;101663.25;4978476;28;20032;-72
2022/07/29 09:04:01;;;;;;;8.70;2.40;;;;;;;23.71;44.42;101651.22;4998970;28;20061;-70
2022/07/29 09:06:32;;;;;;;12.07;2.75;;;;;;;23.87;43.76;101658.94;4970737;28;20026;-72
2022/07/29 09:08:59;;;;;;;9.85;2.60;;;;;;;23.83;43.64;101653.00;5004941;28;20108;-72
2022/07/29 09:11:25;;;;;;;9.23;2.88;;;;;;;23.79;43.12;101650.91;4974807;28;20057;-71
2022/07/29 09:13:50;;;;;;;16.15;3.55;;;;;;;23.87;43.12;101650.66;4974032;28;20045;-72
2022/07/29 09:16:15;;;;;;;10.75;2.55;;;;;;;24.18;42.36;101648.81;4995925;28;20053;-71
2022/07/29 09:18:44;;;;;;;10.07;2.30;;;;;;;24.15;42.61;101649.28;4990142;28;20022;-72
2022/07/29 09:24:03;;;;;;;13.98;3.08;;;;;;;24.47;42.32;101642.56;5001877;28;20053;-70
2022/07/29 09:26:34;;;;;;;9.07;2.40;;;;;;;24.53;41.95;101652.72;4982699;28;20069;-72
2022/07/29 09:29:07;;;;;;;;;;;;;;;24.97;41.68;101647.84;4993508;28;20070;-73
2022/07/29 09:31:35;;;;;;;7.72;2.50;;;;;;;24.87;41.02;101647.56;4984280;28;19952;-74
2022/07/29 09:34:01;;;;;;;14.50;4.50;;;;;;;25.43;40.12;101640.81;4989443;28;20024;-74
2022/07/29 09:36:27;;;;;;;12.27;2.72;;;;;;;25.25;40.13;101638.94;4983637;28;20025;-73
2022/07/29 09:39:00;;;;;;;5.25;2.03;;;;;;;25.15;40.93;101636.72;4987195;28;20038;-74
2022/07/29 09:41:27;;;;;;;11.20;2.25;;;;;;;25.30;37.66;101635.44;4970525;28;20026;-73
2022/07/29 09:44:20;;;;;;;13.52;2.63;;;;;;;25.05;39.20;101639.25;4993217;28;20022;-73
2022/07/29 09:46:54;;;;;;;6.75;2.55;;;;;;;25.14;39.74;101636.97;4990248;28;20023;-72
2022/07/29 09:49:19;;;;;;;6.40;1.90;;;;;;;25.06;40.14;101635.41;4979725;28;20053;-74
2022/07/29 09:51:45;;;;;;;10.82;2.50;;;;;;;25.12;39.07;101640.00;4997750;28;20046;-73
2022/07/29 09:54:27;;;;;;;5.18;2.20;;;;;;;24.97;39.86;101636.75;4992976;28;20022;-73
2022/07/29 09:56:54;;;;;;;8.95;2.65;;;;;;;24.93;39.64;101640.25;4996827;28;20024;-72
2022/07/29 09:59:26;;;;;;;8.45;2.47;;;;;;;25.15;38.54;101645.06;5014345;28;20029;-72
2022/07/29 10:01:52;;;;;;;10.60;2.35;;;;;;;24.98;39.14;101645.94;4989590;28;20038;-73
2022/07/29 10:04:18;;;;;;;11.35;2.30;;;;;;;24.97;38.72;101647.84;4979343;28;20018;-72
2022/07/29 10:07:00;;;;;;;10.48;2.20;;;;;;;25.14;37.94;101648.91;4999494;28;20037;-73
2022/07/29 10:09:26;;;;;;;11.52;2.30;;;;;;;24.75;39.71;101654.97;4997057;28;20026;-73
2022/07/29 10:12:13;;;;;;;5.13;1.98;;;;;;;24.70;38.18;101652.06;5002710;28;20030;-73
2022/07/29 10:14:39;;;;;;;6.35;2.15;;;;;;;25.08;38.06;101647.06;4987296;28;20064;-73
2022/07/29 10:17:06;;;;;;;4.30;1.98;;;;;;;25.19;37.92;101639.06;4993477;28;20029;-73
2022/07/29 10:19:34;;;;;;;8.13;1.90;;;;;;;25.44;37.57;101635.00;4996365;28;20036;-73
2022/07/29 10:22:01;;;;;;;5.75;1.90;;;;;;;25.51;38.15;101634.91;5014230;28;20026;-74
2022/07/29 10:24:27;;;;;;;5.32;1.92;;;;;;;25.22;37.84;101628.31;4994907;28;20026;-73
2022/07/29 10:26:58;;;;;;;6.93;2.10;;;;;;;25.41;38.19;101620.75;4996948;28;20029;-73
2022/07/29 10:29:25;;;;;;;7.78;1.83;;;;;;;25.20;38.74;101624.09;4996401;28;20061;-73
2022/07/29 10:32:12;;;;;;;7.55;2.13;;;;;;;25.29;37.47;101628.22;5013880;28;20037;-73
2022/07/29 10:35:05;;;;;;;10.20;2.00;;;;;;;25.15;38.08;101622.88;4990841;28;20038;-73
2022/07/29 10:37:58;;;;;;;5.50;1.60;;;;;;;25.11;38.78;101621.69;4987072;28;20592;-73
2022/07/29 10:43:52;;;;;;;8.23;2.30;;;;;;;25.01;38.42;101615.81;4998480;28;20070;-73
2022/07/29 10:46:18;;;;;;;6.45;2.22;;;;;;;24.84;38.70;101609.25;5013733;28;20081;-73
2022/07/29 10:49:08;;;;;;;10.73;2.28;;;;;;;25.13;38.47;101608.41;5004011;28;20036;-73
2022/07/29 10:51:55;;;;;;;13.02;2.33;;;;;;;24.86;39.61;101607.09;4995733;28;20029;-73
2022/07/29 10:54:39;;;;;;;10.20;2.10;;;;;;;25.21;39.20;101609.16;4995776;28;20053;-73
2022/07/29 10:57:25;;;;;;;14.05;3.97;;;;;;;25.12;39.37;101615.06;4970783;28;20030;-72
2022/07/29 10:59:54;;;;;;;9.38;2.17;;;;;;;24.87;38.68;101611.56;4993727;28;20038;-73
2022/07/29 11:02:39;;;;;;;6.05;2.00;;;;;;;25.16;38.08;101605.16;4996164;28;20025;-73
2022/07/29 11:05:09;;;;;;;5.50;2.00;;;;;;;25.16;38.58;101602.38;4996264;28;20037;-73
2022/07/29 11:07:37;;;;;;;5.22;2.15;;;;;;;25.58;36.88;101607.91;5013942;28;20026;-72
2022/07/29 11:10:12;;;;;;;8.68;1.70;;;;;;;25.76;36.69;101611.69;4995505;28;20080;-74
2022/07/29 11:12:37;;;;;;;6.03;2.30;;;;;;;25.79;36.86;101605.63;4990704;28;20121;-73
2022/07/29 11:15:16;;;;;;;6.20;2.03;;;;;;;26.43;36.34;101606.53;4979865;28;20082;-74
2022/07/29 11:18:08;;;;;;;12.18;1.92;;;;;;;26.69;35.85;101600.41;4975798;28;20062;-75
2022/07/29 11:20:42;;;;;;;4.88;1.67;;;;;;;27.00;35.23;101601.00;4986676;28;20044;-74
2022/07/29 11:23:18;;;;;;;8.07;2.05;;;;;;;27.00;35.52;101606.56;4981749;28;20026;-74
2022/07/29 11:25:44;;;;;;;8.20;2.00;;;;;;;26.92;33.78;101593.03;4970778;28;20034;-74
2022/07/29 11:28:21;;;;;;;5.53;1.83;;;;;;;27.36;33.91;101598.84;4968702;28;20117;-74
2022/07/29 11:30:52;;;;;;;9.45;1.88;;;;;;;27.57;34.04;101595.28;4974209;28;20389;-74
2022/07/29 11:33:29;;;;;;;6.32;2.00;;;;;;;27.75;33.38;101603.41;4966569;28;20025;-74
2022/07/29 11:36:21;;;;;;;7.40;2.40;;;;;;;28.01;33.38;101598.22;4966098;28;20041;-74
2022/07/29 11:38:46;;;;;;;6.78;1.88;;;;;;;28.19;32.07;101592.34;4977160;28;20106;-74
2022/07/29 11:41:17;;;;;;;9.20;2.72;;;;;;;27.92;32.89;101591.41;4988925;28;20103;-74
2022/07/29 11:43:51;;;;;;;7.40;2.13;;;;;;;27.60;32.87;101580.91;4991630;28;20049;-74
2022/07/29 11:46:38;;;;;;;8.85;2.00;;;;;;;27.51;33.54;101585.19;4989355;28;20026;-74
2022/07/29 11:49:04;;;;;;;8.05;2.05;;;;;;;27.59;33.49;101577.28;4991724;28;20022;-75
2022/07/29 11:51:30;;;;;;;13.50;1.98;;;;;;;28.10;32.87;101577.16;5004142;28;20030;-74
2022/07/29 11:53:57;;;;;;;4.40;1.73;;;;;;;27.92;32.37;101583.06;4978993;28;20033;-74